createdAt,value
2022-08-19T00:01:31.522Z,2.53
2022-08-19T00:03:59.856Z,2.80
2022-08-19T00:06:28.033Z,2.10
2022-08-19T00:08:55.052Z,3.20
2022-08-19T00:11:25.990Z,2.73
2022-08-19T00:13:53.713Z,2.67
2022-08-19T00:16:25.227Z,3.40
2022-08-19T00:18:53.170Z,2.00
2022-08-19T00:21:19.985Z,2.03
2022-08-19T00:23:47.144Z,2.90
2022-08-19T00:26:14.154Z,2.90
2022-08-19T00:28:42.224Z,2.50
2022-08-19T00:31:09.875Z,2.93
2022-08-19T00:33:37.063Z,1.90
2022-08-19T00:36:07.367Z,2.80
2022-08-19T00:38:37.813Z,2.20
2022-08-19T00:41:06.492Z,2.20
2022-08-19T00:43:33.625Z,2.50
2022-08-19T00:46:00.494Z,3.20
2022-08-19T00:48:27.602Z,2.80
2022-08-19T00:50:55.372Z,3.20
2022-08-19T00:53:24.974Z,3.20
2022-08-19T00:55:54.932Z,3.00
2022-08-19T00:58:24.442Z,3.67
2022-08-19T01:00:51.170Z,3.00
2022-08-19T01:03:20.133Z,2.93
2022-08-19T01:05:49.122Z,3.30
2022-08-19T01:08:17.470Z,2.77
2022-08-19T01:10:54.551Z,5.40
2022-08-19T01:13:25.050Z,2.50
2022-08-19T01:15:56.733Z,3.03
2022-08-19T01:18:24.523Z,2.40
2022-08-19T01:20:52.333Z,1.70
2022-08-19T01:23:19.610Z,2.40
2022-08-19T01:25:52.612Z,2.63
2022-08-19T01:28:39.056Z,3.20
2022-08-19T01:31:08.773Z,3.50
2022-08-19T01:33:35.723Z,2.90
2022-08-19T01:36:22.160Z,3.10
2022-08-19T01:38:50.493Z,3.10
2022-08-19T01:41:18.474Z,2.87
2022-08-19T01:44:10.066Z,2.57
2022-08-19T01:46:33.296Z,2.27
2022-08-19T01:49:01.054Z,2.33
2022-08-19T01:51:28.623Z,1.97
2022-08-19T01:53:55.859Z,2.70
2022-08-19T01:56:22.593Z,2.87
2022-08-19T01:58:54.212Z,2.57
2022-08-19T02:01:21.156Z,2.20
2022-08-19T02:03:48.007Z,3.50
2022-08-19T02:06:15.382Z,3.00
2022-08-19T02:08:42.242Z,4.07
2022-08-19T02:11:09.063Z,3.70
2022-08-19T02:13:36.063Z,3.90
2022-08-19T02:16:04.376Z,2.97
2022-08-19T02:18:31.363Z,3.30
2022-08-19T02:20:58.102Z,3.63
2022-08-19T02:23:25.012Z,3.53
2022-08-19T02:25:53.333Z,2.37
2022-08-19T02:28:20.082Z,1.93
2022-08-19T02:30:47.980Z,2.50
2022-08-19T02:33:14.822Z,1.67
2022-08-19T02:35:48.235Z,3.07
2022-08-19T02:38:27.700Z,2.00
2022-08-19T02:41:03.373Z,2.27
2022-08-19T02:43:33.878Z,2.33
2022-08-19T02:46:01.683Z,2.80
2022-08-19T02:48:28.742Z,2.30
2022-08-19T02:50:58.248Z,2.57
2022-08-19T02:53:27.945Z,3.20
2022-08-19T02:55:55.296Z,3.30
2022-08-19T02:58:22.770Z,2.83
2022-08-19T03:00:52.958Z,3.83
2022-08-19T03:03:20.222Z,2.33
2022-08-19T03:05:56.812Z,4.17
2022-08-19T03:08:25.390Z,1.87
2022-08-19T03:10:54.132Z,1.73
2022-08-19T03:13:21.143Z,3.57
2022-08-19T03:15:48.752Z,2.67
2022-08-19T03:18:17.909Z,2.90
2022-08-19T03:20:47.092Z,2.90
2022-08-19T03:23:14.942Z,2.50
2022-08-19T03:25:44.235Z,3.60
2022-08-19T03:28:12.994Z,3.73
2022-08-19T03:30:41.984Z,4.00
2022-08-19T03:33:17.952Z,3.20
2022-08-19T03:35:46.209Z,4.10
2022-08-19T03:38:13.012Z,3.80
2022-08-19T03:40:39.742Z,4.17
2022-08-19T03:43:07.115Z,3.30
2022-08-19T03:45:33.883Z,3.53
2022-08-19T03:48:00.705Z,4.60
2022-08-19T03:50:27.532Z,3.57
2022-08-19T03:52:54.438Z,3.80
2022-08-19T03:55:21.392Z,4.43
2022-08-19T03:57:49.684Z,3.97
2022-08-19T04:00:16.983Z,5.97
2022-08-19T04:02:56.550Z,4.53
2022-08-19T04:05:29.495Z,4.87
2022-08-19T04:08:00.326Z,3.90
2022-08-19T04:10:29.216Z,4.77
2022-08-19T04:12:56.070Z,3.60
2022-08-19T04:15:22.827Z,3.90
2022-08-19T04:17:49.602Z,3.97
2022-08-19T04:20:16.505Z,6.00
2022-08-19T04:22:43.222Z,7.30
2022-08-19T04:25:10.612Z,5.83
2022-08-19T04:27:37.320Z,5.07
2022-08-19T04:30:04.932Z,9.90
2022-08-19T04:32:33.032Z,9.40
2022-08-19T04:35:02.211Z,8.37
2022-08-19T04:37:43.293Z,7.00
2022-08-19T04:40:29.501Z,7.80
2022-08-19T04:42:57.412Z,6.20
2022-08-19T04:45:24.312Z,5.90
2022-08-19T04:47:57.790Z,6.60
2022-08-19T04:50:27.061Z,5.67
2022-08-19T04:52:54.433Z,5.67
2022-08-19T04:55:21.512Z,5.50
2022-08-19T04:57:48.594Z,6.13
2022-08-19T05:00:15.853Z,7.07
2022-08-19T05:02:43.422Z,5.83
2022-08-19T05:05:10.510Z,5.83
2022-08-19T05:07:37.655Z,7.90
2022-08-19T05:10:06.222Z,6.40
2022-08-19T05:12:32.995Z,6.57
2022-08-19T05:15:00.163Z,6.43
2022-08-19T05:17:29.668Z,6.97
2022-08-19T05:20:17.890Z,5.97
2022-08-19T05:22:46.316Z,6.13
2022-08-19T05:25:20.183Z,5.90
2022-08-19T05:27:47.502Z,7.53
2022-08-19T05:30:14.633Z,6.77
2022-08-19T05:32:43.069Z,5.60
2022-08-19T05:35:10.692Z,7.90
2022-08-19T05:37:38.062Z,4.47
2022-08-19T05:40:05.437Z,4.50
2022-08-19T05:42:32.394Z,5.20
2022-08-19T05:44:59.273Z,4.77
2022-08-19T05:47:26.057Z,6.27
2022-08-19T05:49:52.924Z,6.33
2022-08-19T05:52:26.101Z,4.83
2022-08-19T05:54:56.179Z,4.73
2022-08-19T05:57:24.678Z,4.90
2022-08-19T05:59:53.159Z,5.47
2022-08-19T06:02:26.574Z,4.63
2022-08-19T06:04:53.481Z,5.93
2022-08-19T06:07:20.598Z,6.57
2022-08-19T06:09:58.843Z,7.13
2022-08-19T06:12:31.718Z,9.57
2022-08-19T06:15:01.366Z,7.50
2022-08-19T06:17:31.725Z,6.67
2022-08-19T06:19:59.816Z,6.40
2022-08-19T06:22:27.257Z,7.97
2022-08-19T06:24:55.132Z,7.77
2022-08-19T06:27:22.542Z,5.50
2022-08-19T06:29:49.703Z,6.07
2022-08-19T06:32:18.892Z,5.40
2022-08-19T06:34:45.839Z,6.23
2022-08-19T06:37:13.265Z,6.33
2022-08-19T06:39:44.747Z,6.07
2022-08-19T06:42:17.737Z,5.07
2022-08-19T06:44:49.010Z,5.50
2022-08-19T06:47:23.542Z,6.80
2022-08-19T06:50:01.330Z,6.37
2022-08-19T06:52:36.408Z,7.30
2022-08-19T06:55:05.896Z,6.13
2022-08-19T06:57:34.157Z,6.60
2022-08-19T07:00:01.307Z,6.00
2022-08-19T07:02:28.187Z,6.93
2022-08-19T07:04:56.954Z,6.03
2022-08-19T07:07:24.290Z,5.73
2022-08-19T07:10:00.264Z,7.30
2022-08-19T07:12:33.779Z,6.33
2022-08-19T07:15:02.537Z,6.00
2022-08-19T07:17:30.309Z,5.00
2022-08-19T07:19:57.895Z,5.03
2022-08-19T07:22:33.787Z,4.93
2022-08-19T07:25:01.011Z,4.57
2022-08-19T07:27:27.756Z,5.03
2022-08-19T07:29:55.890Z,3.20
2022-08-19T07:32:24.121Z,4.43
2022-08-19T07:34:51.000Z,5.10
2022-08-19T07:37:18.178Z,4.00
2022-08-19T07:39:45.146Z,4.27
2022-08-19T07:42:13.477Z,3.53
2022-08-19T07:47:49.048Z,4.00
2022-08-19T07:50:01.056Z,6.00
2022-08-19T07:52:27.926Z,5.53
2022-08-19T07:54:54.736Z,6.87
2022-08-19T07:57:21.999Z,5.30
2022-08-19T07:59:48.908Z,5.93
2022-08-19T08:02:15.738Z,6.57
2022-08-19T08:05:00.979Z,3.40
2022-08-19T08:07:46.691Z,3.37
2022-08-19T08:10:20.945Z,3.03
2022-08-19T08:13:01.808Z,5.60
2022-08-19T08:15:38.694Z,5.53
2022-08-19T08:18:08.820Z,6.13
2022-08-19T08:20:36.301Z,7.20
2022-08-19T08:23:22.051Z,6.13
2022-08-19T08:25:50.089Z,5.23
2022-08-19T08:28:18.038Z,6.27
2022-08-19T08:30:47.439Z,5.53
2022-08-19T08:35:49.142Z,4.53
2022-08-19T08:38:17.685Z,3.70
2022-08-19T08:40:51.302Z,4.40
2022-08-19T08:43:45.641Z,5.57
2022-08-19T08:46:31.622Z,3.77
2022-08-19T08:49:06.718Z,4.10
2022-08-19T08:51:39.310Z,4.83
2022-08-19T08:54:12.102Z,4.53
2022-08-19T08:56:40.284Z,4.07
2022-08-19T08:59:15.870Z,3.80
2022-08-19T09:01:42.652Z,3.80
2022-08-19T09:04:09.743Z,5.40
2022-08-19T09:06:42.092Z,4.60
2022-08-19T09:09:20.824Z,3.40
2022-08-19T09:12:15.193Z,4.80
2022-08-19T09:15:02.241Z,3.70
2022-08-19T09:17:36.315Z,3.50
2022-08-19T09:20:17.521Z,3.33
2022-08-19T09:22:47.593Z,4.53
2022-08-19T09:25:24.716Z,3.07
2022-08-19T09:27:55.320Z,3.60
2022-08-19T09:30:35.811Z,3.43
2022-08-19T09:33:02.667Z,3.87
2022-08-19T09:35:30.655Z,3.33
2022-08-19T09:37:59.790Z,2.70
2022-08-19T09:40:30.288Z,4.03
2022-08-19T09:42:58.829Z,3.13
2022-08-19T09:45:25.720Z,3.70
2022-08-19T09:47:54.798Z,3.97
2022-08-19T09:50:23.684Z,3.40
2022-08-19T09:52:55.040Z,4.60
2022-08-19T09:55:31.268Z,3.30
2022-08-19T09:57:59.904Z,2.93
2022-08-19T10:00:27.849Z,2.30
2022-08-19T10:02:54.705Z,2.20
2022-08-19T10:05:42.176Z,3.10
2022-08-19T10:08:13.826Z,2.80
2022-08-19T10:10:46.276Z,2.77
2022-08-19T10:13:15.477Z,3.20
2022-08-19T10:15:47.619Z,2.93
2022-08-19T10:18:19.300Z,2.40
2022-08-19T10:20:51.666Z,1.97
2022-08-19T10:23:21.072Z,2.77
2022-08-19T10:25:49.025Z,3.60
2022-08-19T10:28:16.269Z,3.47
2022-08-19T10:30:47.658Z,2.50
2022-08-19T10:33:38.228Z,3.20
2022-08-19T10:36:19.251Z,2.77
2022-08-19T10:38:52.327Z,2.20
2022-08-19T10:41:25.766Z,2.07
2022-08-19T10:43:57.638Z,1.57
2022-08-19T10:46:34.293Z,2.17
2022-08-19T10:49:02.781Z,1.37
2022-08-19T10:51:48.816Z,2.03
2022-08-19T10:54:17.139Z,1.37
2022-08-19T10:56:57.974Z,1.60
2022-08-19T10:59:33.841Z,2.27
2022-08-19T11:02:06.354Z,1.73
2022-08-19T11:04:34.349Z,2.80
2022-08-19T11:07:03.313Z,2.77
2022-08-19T11:09:33.880Z,1.63
2022-08-19T11:12:02.808Z,1.90
2022-08-19T11:14:32.099Z,1.90
2022-08-19T11:17:01.850Z,1.47
2022-08-19T11:19:28.759Z,2.03
2022-08-19T11:21:57.622Z,1.90
2022-08-19T11:24:28.540Z,1.63
2022-08-19T11:27:01.036Z,1.70
2022-08-19T11:29:29.070Z,2.03
2022-08-19T11:31:56.323Z,1.57
2022-08-19T11:34:26.526Z,1.63
2022-08-19T11:36:58.053Z,2.13
2022-08-19T11:39:25.260Z,2.20
2022-08-19T11:41:52.291Z,2.37
2022-08-19T11:44:19.483Z,1.77
2022-08-19T11:46:47.495Z,3.00
2022-08-19T11:49:19.932Z,2.43
2022-08-19T11:51:47.419Z,2.70
2022-08-19T11:54:15.732Z,1.97
2022-08-19T11:56:42.989Z,2.60
2022-08-19T11:59:14.646Z,3.53
2022-08-19T12:01:43.744Z,3.50
2022-08-19T12:04:11.683Z,3.10
2022-08-19T12:06:40.733Z,3.50
2022-08-19T12:09:10.501Z,2.07
2022-08-19T12:11:38.906Z,3.37
2022-08-19T12:14:06.183Z,3.30
2022-08-19T12:16:33.817Z,3.00
2022-08-19T12:19:05.081Z,3.00
2022-08-19T12:21:34.171Z,3.27
2022-08-19T12:24:02.322Z,3.33
2022-08-19T12:26:30.514Z,2.67
2022-08-19T12:28:57.233Z,2.97
2022-08-19T12:31:24.071Z,2.80
2022-08-19T12:33:50.905Z,3.00
2022-08-19T12:36:18.738Z,3.07
2022-08-19T12:38:45.763Z,2.40
2022-08-19T12:41:15.073Z,1.80
2022-08-19T12:43:42.974Z,2.50
2022-08-19T12:46:11.446Z,3.10
2022-08-19T12:48:40.351Z,2.47
2022-08-19T12:51:10.400Z,2.63
2022-08-19T12:53:39.147Z,2.60
2022-08-19T12:56:08.130Z,2.60
2022-08-19T12:58:39.995Z,2.40
2022-08-19T13:01:15.812Z,2.50
2022-08-19T13:03:46.644Z,3.13
2022-08-19T13:06:13.935Z,2.63
2022-08-19T13:08:46.532Z,3.03
2022-08-19T13:11:15.953Z,2.60
2022-08-19T13:13:44.942Z,2.13
2022-08-19T13:16:13.114Z,2.97
2022-08-19T13:18:41.337Z,1.83
2022-08-19T13:21:10.311Z,2.77
2022-08-19T13:23:37.433Z,2.77
2022-08-19T13:26:07.015Z,2.77
2022-08-19T13:28:53.954Z,2.33
2022-08-19T13:31:41.563Z,2.30
2022-08-19T13:34:09.242Z,1.90
2022-08-19T13:36:37.334Z,2.33
2022-08-19T13:39:05.466Z,2.23
2022-08-19T13:41:32.382Z,2.50
2022-08-19T13:43:59.155Z,2.70
2022-08-19T13:46:26.019Z,2.70
2022-08-19T13:48:52.795Z,1.53
2022-08-19T13:51:19.874Z,2.07
2022-08-19T13:53:48.156Z,1.90
2022-08-19T13:56:18.988Z,1.30
2022-08-19T13:58:47.784Z,1.93
2022-08-19T14:01:21.010Z,1.67
2022-08-19T14:03:51.715Z,1.33
2022-08-19T14:06:18.710Z,1.13
2022-08-19T14:08:46.514Z,1.27
2022-08-19T14:11:13.504Z,1.10
2022-08-19T14:13:40.374Z,0.90
2022-08-19T14:16:11.294Z,1.37
2022-08-19T14:18:38.574Z,1.57
2022-08-19T14:21:06.233Z,1.00
2022-08-19T14:23:34.244Z,2.10
2022-08-19T14:26:14.526Z,1.60
2022-08-19T14:28:44.693Z,1.43
2022-08-19T14:31:13.372Z,1.93
2022-08-19T14:33:41.603Z,1.50
2022-08-19T14:36:08.571Z,2.40
2022-08-19T14:38:35.957Z,3.10
2022-08-19T14:41:20.456Z,3.70
2022-08-19T14:43:49.582Z,2.40
2022-08-19T14:46:18.232Z,3.00
2022-08-19T14:48:48.034Z,2.83
2022-08-19T14:51:20.169Z,1.63
2022-08-19T14:53:49.763Z,2.10
2022-08-19T14:56:20.510Z,1.87
2022-08-19T14:58:47.366Z,2.20
2022-08-19T15:01:14.689Z,2.57
2022-08-19T15:03:42.843Z,2.70
2022-08-19T15:06:12.682Z,1.80
2022-08-19T15:08:42.081Z,1.10
2022-08-19T15:11:10.961Z,1.63
2022-08-19T15:13:38.214Z,1.27
2022-08-19T15:16:05.366Z,1.93
2022-08-19T15:18:32.153Z,1.27
2022-08-19T15:20:58.933Z,1.47
2022-08-19T15:23:26.526Z,2.37
2022-08-19T15:25:56.495Z,1.47
2022-08-19T15:28:24.383Z,1.30
2022-08-19T15:30:51.233Z,1.43
2022-08-19T15:33:18.713Z,1.70
2022-08-19T15:35:45.544Z,2.10
2022-08-19T15:38:14.088Z,2.10
2022-08-19T15:40:42.393Z,1.50
2022-08-19T15:43:09.118Z,1.30
2022-08-19T15:45:36.045Z,1.77
2022-08-19T15:48:04.445Z,1.20
2022-08-19T15:50:35.965Z,1.27
2022-08-19T15:53:06.753Z,1.27
2022-08-19T15:55:35.884Z,0.80
2022-08-19T15:58:28.277Z,1.33
2022-08-19T16:01:16.077Z,0.80
2022-08-19T16:04:01.605Z,1.20
2022-08-19T16:06:28.674Z,0.90
2022-08-19T16:08:57.592Z,1.40
2022-08-19T16:11:29.482Z,1.50
2022-08-19T16:13:58.009Z,1.40
2022-08-19T16:16:34.073Z,0.80
2022-08-19T16:19:06.306Z,1.13
2022-08-19T16:21:39.697Z,1.30
2022-08-19T16:24:10.365Z,1.80
2022-08-19T16:26:37.275Z,1.60
2022-08-19T16:29:09.034Z,1.40
2022-08-19T16:31:39.012Z,1.20
2022-08-19T16:34:06.514Z,1.10
2022-08-19T16:36:33.570Z,2.37
2022-08-19T16:39:01.034Z,0.83
2022-08-19T16:41:29.244Z,1.60
2022-08-19T16:43:56.214Z,1.67
2022-08-19T16:46:23.656Z,1.50
2022-08-19T16:48:54.145Z,1.37
2022-08-19T16:51:22.931Z,1.10
2022-08-19T16:53:52.615Z,1.10
2022-08-19T16:56:20.517Z,1.60
2022-08-19T16:58:48.373Z,1.90
2022-08-19T17:01:15.175Z,1.00
2022-08-19T17:03:42.173Z,1.17
2022-08-19T17:06:21.010Z,1.00
2022-08-19T17:08:52.363Z,1.20
2022-08-19T17:11:20.254Z,1.00
2022-08-19T17:13:47.908Z,1.50
2022-08-19T17:16:15.880Z,1.07
2022-08-19T17:18:42.716Z,0.93
2022-08-19T17:21:09.716Z,1.37
2022-08-19T17:23:42.186Z,1.60
2022-08-19T17:26:17.171Z,1.23
2022-08-19T17:28:48.100Z,1.37
2022-08-19T17:31:15.283Z,0.80
2022-08-19T17:33:42.005Z,1.27
2022-08-19T17:36:09.012Z,1.10
2022-08-19T17:38:36.014Z,0.70
2022-08-19T17:41:05.783Z,1.00
2022-08-19T17:43:37.056Z,1.00
2022-08-19T17:46:05.785Z,1.07
2022-08-19T17:48:40.933Z,0.90
2022-08-19T17:51:22.461Z,1.03
2022-08-19T17:53:51.064Z,1.00
2022-08-19T17:56:18.707Z,1.70
2022-08-19T17:58:51.999Z,1.10
2022-08-19T18:01:34.150Z,1.23
2022-08-19T18:04:17.371Z,1.30
2022-08-19T18:06:46.606Z,1.33
2022-08-19T18:09:24.897Z,1.70
2022-08-19T18:11:53.666Z,0.97
2022-08-19T18:14:32.968Z,0.77
2022-08-19T18:17:12.884Z,1.33
2022-08-19T18:19:43.356Z,0.97
2022-08-19T18:22:13.054Z,1.20
2022-08-19T18:24:42.125Z,1.30
2022-08-19T18:27:10.054Z,1.43
2022-08-19T18:29:38.506Z,1.30
2022-08-19T18:32:06.915Z,1.00
2022-08-19T18:34:36.607Z,1.10
2022-08-19T18:37:03.374Z,1.23
2022-08-19T18:39:48.757Z,0.77
2022-08-19T18:42:34.904Z,1.13
2022-08-19T18:45:20.410Z,1.10
2022-08-19T18:48:05.665Z,1.17
2022-08-19T18:50:33.514Z,0.93
2022-08-19T18:53:00.305Z,1.07
2022-08-19T18:55:28.427Z,1.03
2022-08-19T18:57:55.513Z,1.60
2022-08-19T19:00:22.374Z,1.20
2022-08-19T19:02:50.186Z,1.03
2022-08-19T19:05:16.934Z,0.70
2022-08-19T19:07:44.018Z,1.63
2022-08-19T19:10:10.887Z,1.10
2022-08-19T19:12:41.659Z,1.03
2022-08-19T19:15:08.953Z,0.80
2022-08-19T19:17:35.643Z,1.03
2022-08-19T19:20:03.215Z,1.67
2022-08-19T19:22:30.116Z,0.57
2022-08-19T19:24:59.144Z,1.00
2022-08-19T19:27:26.314Z,1.27
2022-08-19T19:29:53.254Z,1.30
2022-08-19T19:32:27.004Z,1.80
2022-08-19T19:34:54.274Z,0.97
2022-08-19T19:37:21.167Z,1.30
2022-08-19T19:39:48.303Z,1.00
2022-08-19T19:42:21.309Z,1.23
2022-08-19T19:44:50.567Z,1.27
2022-08-19T19:47:19.067Z,1.60
2022-08-19T19:50:10.719Z,1.37
2022-08-19T19:52:33.562Z,1.30
2022-08-19T19:55:01.449Z,0.87
2022-08-19T19:57:30.387Z,0.73
2022-08-19T19:59:57.103Z,0.90
2022-08-19T20:02:25.354Z,1.10
2022-08-19T20:04:54.046Z,1.60
2022-08-19T20:07:40.673Z,0.93
2022-08-19T20:10:07.578Z,1.07
2022-08-19T20:12:34.853Z,1.40
2022-08-19T20:15:01.543Z,1.70
2022-08-19T20:17:28.154Z,1.30
2022-08-19T20:19:57.587Z,1.30
2022-08-19T20:22:25.708Z,1.20
2022-08-19T20:24:53.861Z,1.07
2022-08-19T20:27:23.571Z,1.37
2022-08-19T20:29:52.547Z,1.03
2022-08-19T20:32:19.177Z,0.93
2022-08-19T20:34:49.124Z,1.23
2022-08-19T20:37:15.887Z,1.37
2022-08-19T20:39:42.648Z,1.10
2022-08-19T20:42:09.324Z,0.93
2022-08-19T20:44:36.191Z,1.03
2022-08-19T20:47:04.110Z,0.80
2022-08-19T20:49:31.514Z,1.43
2022-08-19T20:51:58.577Z,1.57
2022-08-19T20:54:26.192Z,1.27
2022-08-19T20:56:53.281Z,1.30
2022-08-19T20:59:20.965Z,1.60
2022-08-19T21:01:48.436Z,1.53
2022-08-19T21:04:15.081Z,1.70
2022-08-19T21:06:45.382Z,2.20
2022-08-19T21:09:13.615Z,2.03
2022-08-19T21:11:40.344Z,1.40
2022-08-19T21:14:07.015Z,1.33
2022-08-19T21:16:33.967Z,1.13
2022-08-19T21:19:01.194Z,1.20
2022-08-19T21:21:28.529Z,1.10
2022-08-19T21:23:55.194Z,2.17
2022-08-19T21:26:21.905Z,1.53
2022-08-19T21:28:48.544Z,1.50
2022-08-19T21:31:17.895Z,1.00
2022-08-19T21:33:45.065Z,1.53
2022-08-19T21:36:11.782Z,0.90
2022-08-19T21:38:38.613Z,1.17
2022-08-19T21:41:06.491Z,1.87
2022-08-19T21:43:34.901Z,1.50
2022-08-19T21:46:01.889Z,0.87
2022-08-19T21:48:28.608Z,1.07
2022-08-19T21:50:55.250Z,0.93
2022-08-19T21:53:22.772Z,1.30
2022-08-19T21:55:53.456Z,0.87
2022-08-19T21:58:28.323Z,0.80
2022-08-19T22:01:01.772Z,1.30
2022-08-19T22:03:28.923Z,0.90
2022-08-19T22:05:55.662Z,1.10
2022-08-19T22:08:22.265Z,1.57
2022-08-19T22:10:49.853Z,1.20
2022-08-19T22:13:18.291Z,1.20
2022-08-19T22:15:46.294Z,1.37
2022-08-19T22:18:13.780Z,0.90
2022-08-19T22:20:40.715Z,0.90
2022-08-19T22:23:07.936Z,1.20
2022-08-19T22:25:40.844Z,1.13
2022-08-19T22:28:10.888Z,1.50
2022-08-19T22:30:38.965Z,1.50
2022-08-19T22:33:12.561Z,1.23
2022-08-19T22:35:41.515Z,1.10
2022-08-19T22:38:10.275Z,1.40
2022-08-19T22:40:39.722Z,1.00
2022-08-19T22:43:30.072Z,1.17
2022-08-19T22:45:58.156Z,1.27
2022-08-19T22:48:28.097Z,1.23
2022-08-19T22:51:14.286Z,0.90
2022-08-19T22:53:45.035Z,1.20
2022-08-19T22:56:15.311Z,0.67
2022-08-19T22:58:43.425Z,1.70
2022-08-19T23:01:23.114Z,1.33
2022-08-19T23:03:56.396Z,1.10
2022-08-19T23:06:23.311Z,1.40
2022-08-19T23:09:01.143Z,1.33
2022-08-19T23:11:27.944Z,0.90
2022-08-19T23:13:54.730Z,1.63
2022-08-19T23:16:21.534Z,1.20
2022-08-19T23:18:48.375Z,1.30
2022-08-19T23:21:15.094Z,1.40
2022-08-19T23:23:41.843Z,1.27
2022-08-19T23:26:10.421Z,1.10
2022-08-19T23:28:57.424Z,0.80
2022-08-19T23:31:26.267Z,1.17
2022-08-19T23:33:53.557Z,1.20
2022-08-19T23:36:20.651Z,1.10
2022-08-19T23:38:49.034Z,1.00
2022-08-19T23:41:18.001Z,1.20
2022-08-19T23:43:45.098Z,1.47
2022-08-19T23:46:14.159Z,1.77
2022-08-19T23:48:55.681Z,2.30
2022-08-19T23:51:22.513Z,2.93
2022-08-19T23:53:49.372Z,3.03
2022-08-19T23:56:16.144Z,2.00
2022-08-19T23:58:42.926Z,1.70
